Edgewood, Illinois
Current Conditions -  °F | °C
As of 2:55 PM on Tuesday 21 Oct 2014 (Local Time) from K1H2 Reporting Station
Scattered Clouds Scattered Clouds  
Wind Chill: 63°   Ceiling: Unl
Heat Index: 63°   Visibility: 10mi
Dew Point: 37°   Wind: 9mph
Humidity: 39%   Direction: 20°NNE
Pressure: 30.12"   Gusts: NA
Location:  38.92°N, 88.66°W
Report Text: K1H2 211955Z AUTO 02008KT 350V050 10SM SCT044 17/03 A3012 RMK AO2 T01700030
Loading
Personal Weather Stations






























Interactive Weather Map
Tropical Storm Tracking
New forecast layout! Learn more

10-Day Weather Forecast

Advertisements
Track Severe Weather on mobile